首页
METAR-TAF:

METAR-TAF

机场 :

內排國際機場

河內, 越南

纬度: 21-01N, 经度: 105-48E, 海拔: 6米

当前天气观测

该预报发布于21分钟前的20:30 UTC
风速2节,风向东转东北
温度 28°C
湿度 100%
气压 1002 hPa
能見度: 8000

METAR: VVNB 192030Z 06002KT 8000 NSC 28/28 Q1002 NOSIG

时间: 03:51 (20:51 UTC)

预报

该预报发布于3小时和51分钟前的17:00 UTC
预报有效从19日的 18点(UTC)到 20日的 18点(UTC)
风速7节,风向东北
能見度: 6000
少量云层高于1500英尺
短暂存在
从 19日的 23点(UTC)到 20日的 03点(UTC)
能見度: 3500
多云层高于800英尺
少量云层高于2700英尺, 积雨云.
雷暴, 大雨
短暂存在
从 20日的 08点(UTC)到 20日的 12点(UTC)
风速15节,风向多变,有时为25节阵风
能見度: 3000
多云层高于800英尺
散云层高于2700英尺, 积雨云.
雷暴, 大雨

TAF: VVNB 191700Z 1918/2018 05007KT 6000 FEW015 TEMPO 1923/2003 3500 +TSRA BKN008 FEW027CB TEMPO 2008/2012 VRB15G25KT 3000 +TSRA BKN008 SCT027CB

超过4000个机场的气象观测和天气预报(METAR&TAF报告)。

可查询的气象台以黄色和红色小点在地图上表示。

将鼠标移到小点上方,可查看气象台名称。

然后点击查看天气观测和预报。

如需切换地图:点击带黑十字的绿色按钮放大地图;点击带横线的绿色按钮缩小地图;或者点击绿色箭头查看邻近地区的地图。


METAR-TAF: